sensor_id;sensor_type;location;lat;lon;timestamp;pressure;altitude;pressure_sealevel;temperature;humidity
31717;BME280;18301;51.076;17.046;2023-05-09T00:00:38;101264.13;;;8.27;64.75
31717;BME280;18301;51.076;17.046;2023-05-09T00:05:40;101262.53;;;8.23;64.70
31717;BME280;18301;51.076;17.046;2023-05-09T00:10:42;101262.91;;;8.15;64.89
31717;BME280;18301;51.076;17.046;2023-05-09T00:15:43;101255.72;;;8.16;65.22
31717;BME280;18301;51.076;17.046;2023-05-09T00:20:45;101257.78;;;8.11;65.41
31717;BME280;18301;51.076;17.046;2023-05-09T00:25:46;101257.06;;;8.07;65.61
31717;BME280;18301;51.076;17.046;2023-05-09T00:30:47;101247.47;;;8.01;65.85
31717;BME280;18301;51.076;17.046;2023-05-09T00:35:49;101253.00;;;7.98;65.54
31717;BME280;18301;51.076;17.046;2023-05-09T00:40:51;101239.22;;;7.87;65.77
31717;BME280;18301;51.076;17.046;2023-05-09T00:45:52;101239.38;;;7.84;65.84
31717;BME280;18301;51.076;17.046;2023-05-09T00:50:54;101230.69;;;7.79;65.80
31717;BME280;18301;51.076;17.046;2023-05-09T00:55:55;101229.22;;;7.72;66.05
31717;BME280;18301;51.076;17.046;2023-05-09T01:00:57;101236.66;;;7.67;66.28
31717;BME280;18301;51.076;17.046;2023-05-09T01:06:24;101229.75;;;7.61;66.58
31717;BME280;18301;51.076;17.046;2023-05-09T01:11:36;101220.22;;;7.54;66.77
31717;BME280;18301;51.076;17.046;2023-05-09T01:17:00;101220.84;;;7.60;66.87
31717;BME280;18301;51.076;17.046;2023-05-09T01:22:06;101211.09;;;7.58;66.85
31717;BME280;18301;51.076;17.046;2023-05-09T01:27:28;101207.91;;;7.50;67.07
31717;BME280;18301;51.076;17.046;2023-05-09T01:32:34;101204.34;;;7.49;67.30
31717;BME280;18301;51.076;17.046;2023-05-09T01:37:41;101209.06;;;7.44;67.46
31717;BME280;18301;51.076;17.046;2023-05-09T01:42:48;101203.84;;;7.41;67.59
31717;BME280;18301;51.076;17.046;2023-05-09T01:47:50;101210.06;;;7.42;67.63
31717;BME280;18301;51.076;17.046;2023-05-09T01:52:54;101209.34;;;7.38;67.77
31717;BME280;18301;51.076;17.046;2023-05-09T01:57:57;101203.34;;;7.33;67.70
31717;BME280;18301;51.076;17.046;2023-05-09T02:03:00;101200.16;;;7.25;67.97
31717;BME280;18301;51.076;17.046;2023-05-09T02:08:04;101200.16;;;7.25;68.16
31717;BME280;18301;51.076;17.046;2023-05-09T02:13:06;101197.19;;;7.12;68.69
31717;BME280;18301;51.076;17.046;2023-05-09T02:18:07;101186.72;;;7.06;68.85
31717;BME280;18301;51.076;17.046;2023-05-09T02:23:09;101186.00;;;7.02;68.85
31717;BME280;18301;51.076;17.046;2023-05-09T02:28:11;101192.97;;;7.06;68.92
31717;BME280;18301;51.076;17.046;2023-05-09T02:33:13;101194.91;;;7.03;69.00
31717;BME280;18301;51.076;17.046;2023-05-09T02:38:15;101181.06;;;6.93;69.15
31717;BME280;18301;51.076;17.046;2023-05-09T02:43:16;101177.72;;;6.88;69.27
31717;BME280;18301;51.076;17.046;2023-05-09T02:48:18;101184.09;;;6.85;69.46
31717;BME280;18301;51.076;17.046;2023-05-09T02:53:19;101182.78;;;6.75;69.76
31717;BME280;18301;51.076;17.046;2023-05-09T02:58:21;101179.38;;;6.72;69.48
31717;BME280;18301;51.076;17.046;2023-05-09T03:03:23;101173.31;;;6.66;69.99
31717;BME280;18301;51.076;17.046;2023-05-09T03:08:25;101173.50;;;6.62;69.92
31717;BME280;18301;51.076;17.046;2023-05-09T03:13:27;101170.84;;;6.62;70.47
31717;BME280;18301;51.076;17.046;2023-05-09T03:18:28;101173.47;;;6.63;70.32
31717;BME280;18301;51.076;17.046;2023-05-09T03:23:30;101170.09;;;6.58;70.15
31717;BME280;18301;51.076;17.046;2023-05-09T03:28:31;101158.78;;;6.52;71.03
31717;BME280;18301;51.076;17.046;2023-05-09T03:33:33;101163.44;;;6.48;70.76
31717;BME280;18301;51.076;17.046;2023-05-09T03:38:34;101167.09;;;6.45;71.49
31717;BME280;18301;51.076;17.046;2023-05-09T03:43:36;101161.56;;;6.50;70.92
31717;BME280;18301;51.076;17.046;2023-05-09T03:48:37;101158.66;;;6.55;70.88
31717;BME280;18301;51.076;17.046;2023-05-09T03:53:38;101159.25;;;6.61;70.95
31717;BME280;18301;51.076;17.046;2023-05-09T03:58:41;101155.91;;;6.56;71.66
31717;BME280;18301;51.076;17.046;2023-05-09T04:03:42;101158.09;;;6.67;71.07
31717;BME280;18301;51.076;17.046;2023-05-09T04:08:44;101160.75;;;6.87;70.52
31717;BME280;18301;51.076;17.046;2023-05-09T04:13:46;101155.09;;;6.94;70.66
31717;BME280;18301;51.076;17.046;2023-05-09T04:18:47;101157.94;;;7.09;70.51
31717;BME280;18301;51.076;17.046;2023-05-09T04:23:49;101163.97;;;7.14;70.31
31717;BME280;18301;51.076;17.046;2023-05-09T04:28:50;101165.53;;;7.37;69.81
31717;BME280;18301;51.076;17.046;2023-05-09T04:33:53;101153.75;;;7.59;69.24
31717;BME280;18301;51.076;17.046;2023-05-09T04:38:54;101154.91;;;7.53;69.97
31717;BME280;18301;51.076;17.046;2023-05-09T04:43:56;101164.13;;;7.84;69.51
31717;BME280;18301;51.076;17.046;2023-05-09T04:48:58;101154.44;;;8.16;69.20
31717;BME280;18301;51.076;17.046;2023-05-09T04:53:59;101155.38;;;8.33;69.50
31717;BME280;18301;51.076;17.046;2023-05-09T04:59:02;101160.50;;;8.72;68.55
31717;BME280;18301;51.076;17.046;2023-05-09T05:04:04;101148.09;;;8.85;67.60
31717;BME280;18301;51.076;17.046;2023-05-09T05:09:06;101149.44;;;9.10;66.93
31717;BME280;18301;51.076;17.046;2023-05-09T05:14:07;101147.25;;;9.32;66.60
31717;BME280;18301;51.076;17.046;2023-05-09T05:19:08;101146.91;;;9.38;66.46
31717;BME280;18301;51.076;17.046;2023-05-09T05:24:10;101141.53;;;9.70;65.42
31717;BME280;18301;51.076;17.046;2023-05-09T05:29:11;101150.50;;;10.01;66.11
31717;BME280;18301;51.076;17.046;2023-05-09T05:34:13;101145.69;;;10.36;65.74
31717;BME280;18301;51.076;17.046;2023-05-09T05:39:16;101141.19;;;10.65;65.10
31717;BME280;18301;51.076;17.046;2023-05-09T05:44:17;101138.69;;;10.91;64.69
31717;BME280;18301;51.076;17.046;2023-05-09T05:49:19;101137.69;;;11.20;62.62
31717;BME280;18301;51.076;17.046;2023-05-09T05:54:21;101134.63;;;11.12;62.37
31717;BME280;18301;51.076;17.046;2023-05-09T05:59:22;101131.66;;;11.02;62.54
31717;BME280;18301;51.076;17.046;2023-05-09T06:04:23;101126.25;;;11.44;61.87
31717;BME280;18301;51.076;17.046;2023-05-09T06:09:25;101126.22;;;11.58;61.81
31717;BME280;18301;51.076;17.046;2023-05-09T06:14:26;101118.16;;;11.98;59.39
31717;BME280;18301;51.076;17.046;2023-05-09T06:19:28;101120.09;;;11.96;59.26
31717;BME280;18301;51.076;17.046;2023-05-09T06:24:29;101126.81;;;12.03;58.85
31717;BME280;18301;51.076;17.046;2023-05-09T06:29:36;101130.97;;;12.34;57.95
31717;BME280;18301;51.076;17.046;2023-05-09T06:34:38;101115.81;;;12.32;58.14
31717;BME280;18301;51.076;17.046;2023-05-09T06:39:39;101119.81;;;12.39;55.64
31717;BME280;18301;51.076;17.046;2023-05-09T06:44:40;101117.03;;;12.53;56.16
31717;BME280;18301;51.076;17.046;2023-05-09T06:49:44;101108.13;;;12.64;55.98
31717;BME280;18301;51.076;17.046;2023-05-09T06:54:45;101108.22;;;12.75;56.31
31717;BME280;18301;51.076;17.046;2023-05-09T06:59:47;101101.78;;;13.02;56.07
31717;BME280;18301;51.076;17.046;2023-05-09T07:04:48;101088.84;;;13.31;55.15
31717;BME280;18301;51.076;17.046;2023-05-09T07:09:50;101092.44;;;13.55;54.43
31717;BME280;18301;51.076;17.046;2023-05-09T07:15:01;101096.69;;;13.71;54.26
31717;BME280;18301;51.076;17.046;2023-05-09T07:20:02;101091.06;;;13.85;53.25
31717;BME280;18301;51.076;17.046;2023-05-09T07:25:08;101087.38;;;13.86;52.34
31717;BME280;18301;51.076;17.046;2023-05-09T07:30:10;101072.88;;;13.98;53.13
31717;BME280;18301;51.076;17.046;2023-05-09T07:35:12;101054.66;;;14.23;52.55
31717;BME280;18301;51.076;17.046;2023-05-09T07:40:14;101050.44;;;14.19;51.47
31717;BME280;18301;51.076;17.046;2023-05-09T07:45:16;101047.50;;;14.22;50.60
31717;BME280;18301;51.076;17.046;2023-05-09T07:50:20;101055.03;;;14.30;48.61
31717;BME280;18301;51.076;17.046;2023-05-09T07:55:23;101031.75;;;14.38;49.79
31717;BME280;18301;51.076;17.046;2023-05-09T08:00:24;101031.25;;;14.44;48.83
31717;BME280;18301;51.076;17.046;2023-05-09T08:05:26;101023.22;;;14.88;47.43
31717;BME280;18301;51.076;17.046;2023-05-09T08:10:27;101035.34;;;14.72;47.50
31717;BME280;18301;51.076;17.046;2023-05-09T08:15:31;101025.44;;;14.94;46.76
31717;BME280;18301;51.076;17.046;2023-05-09T08:20:32;101016.13;;;15.19;45.59
31717;BME280;18301;51.076;17.046;2023-05-09T08:25:34;101013.91;;;15.13;46.40
31717;BME280;18301;51.076;17.046;2023-05-09T08:30:36;101005.94;;;15.32;45.84
31717;BME280;18301;51.076;17.046;2023-05-09T08:35:37;100999.44;;;15.45;47.18
31717;BME280;18301;51.076;17.046;2023-05-09T08:40:39;101007.00;;;15.41;45.49
31717;BME280;18301;51.076;17.046;2023-05-09T08:45:53;100989.78;;;15.52;46.50
31717;BME280;18301;51.076;17.046;2023-05-09T08:50:58;100998.47;;;15.66;44.76
31717;BME280;18301;51.076;17.046;2023-05-09T08:56:02;100992.81;;;15.70;45.15
31717;BME280;18301;51.076;17.046;2023-05-09T09:01:04;100974.94;;;15.98;44.50
31717;BME280;18301;51.076;17.046;2023-05-09T09:06:08;100961.00;;;16.12;44.03
31717;BME280;18301;51.076;17.046;2023-05-09T09:11:11;100963.84;;;16.10;45.85
31717;BME280;18301;51.076;17.046;2023-05-09T09:16:17;100949.91;;;16.34;44.40
31717;BME280;18301;51.076;17.046;2023-05-09T09:21:21;100942.78;;;16.53;44.82
31717;BME280;18301;51.076;17.046;2023-05-09T09:26:23;100956.94;;;16.37;42.92
31717;BME280;18301;51.076;17.046;2023-05-09T09:31:30;100946.84;;;16.68;43.15
31717;BME280;18301;51.076;17.046;2023-05-09T09:36:33;100926.00;;;16.78;42.44
31717;BME280;18301;51.076;17.046;2023-05-09T09:41:38;100945.19;;;16.77;43.32
31717;BME280;18301;51.076;17.046;2023-05-09T09:46:40;100940.28;;;16.71;42.74
31717;BME280;18301;51.076;17.046;2023-05-09T09:51:42;100931.44;;;16.78;41.45
31717;BME280;18301;51.076;17.046;2023-05-09T09:56:46;100916.25;;;17.05;43.10
31717;BME280;18301;51.076;17.046;2023-05-09T10:02:04;100912.66;;;17.43;43.06
31717;BME280;18301;51.076;17.046;2023-05-09T10:07:09;100914.09;;;17.38;40.36
31717;BME280;18301;51.076;17.046;2023-05-09T10:12:15;100895.59;;;17.32;41.01
31717;BME280;18301;51.076;17.046;2023-05-09T10:17:21;100895.84;;;17.48;42.78
31717;BME280;18301;51.076;17.046;2023-05-09T10:22:23;100893.56;;;17.53;42.13
31717;BME280;18301;51.076;17.046;2023-05-09T10:27:26;100895.69;;;17.59;41.09
31717;BME280;18301;51.076;17.046;2023-05-09T10:37:43;100883.47;;;17.63;42.47
31717;BME280;18301;51.076;17.046;2023-05-09T10:42:46;100862.50;;;17.54;40.59
31717;BME280;18301;51.076;17.046;2023-05-09T10:47:49;100861.19;;;17.78;39.33
31717;BME280;18301;51.076;17.046;2023-05-09T11:03:20;100831.38;;;18.22;40.06
31717;BME280;18301;51.076;17.046;2023-05-09T11:08:29;100837.97;;;18.01;39.01
31717;BME280;18301;51.076;17.046;2023-05-09T11:13:35;100809.47;;;18.13;39.51
31717;BME280;18301;51.076;17.046;2023-05-09T11:18:49;100804.00;;;18.31;39.83
31717;BME280;18301;51.076;17.046;2023-05-09T11:23:52;100797.47;;;18.42;40.35
31717;BME280;18301;51.076;17.046;2023-05-09T11:28:58;100808.09;;;18.45;38.35
31717;BME280;18301;51.076;17.046;2023-05-09T11:34:00;100787.09;;;18.46;39.39
31717;BME280;18301;51.076;17.046;2023-05-09T11:39:06;100777.81;;;18.38;38.17
31717;BME280;18301;51.076;17.046;2023-05-09T11:44:18;100763.03;;;18.31;38.98
31717;BME280;18301;51.076;17.046;2023-05-09T11:49:20;100756.09;;;18.37;38.86
31717;BME280;18301;51.076;17.046;2023-05-09T11:54:22;100755.44;;;18.07;37.31
31717;BME280;18301;51.076;17.046;2023-05-09T11:59:24;100754.13;;;18.11;37.90
31717;BME280;18301;51.076;17.046;2023-05-09T12:04:27;100754.13;;;18.47;39.11
31717;BME280;18301;51.076;17.046;2023-05-09T12:09:30;100732.34;;;18.55;37.43
31717;BME280;18301;51.076;17.046;2023-05-09T12:14:33;100734.16;;;18.47;38.80
31717;BME280;18301;51.076;17.046;2023-05-09T12:19:35;100722.28;;;18.56;37.71
31717;BME280;18301;51.076;17.046;2023-05-09T12:24:37;100723.13;;;18.56;37.49
31717;BME280;18301;51.076;17.046;2023-05-09T12:29:38;100715.41;;;18.70;37.98
31717;BME280;18301;51.076;17.046;2023-05-09T12:34:42;100702.59;;;18.70;36.59
31717;BME280;18301;51.076;17.046;2023-05-09T12:40:05;100695.88;;;18.64;37.19
31717;BME280;18301;51.076;17.046;2023-05-09T12:45:07;100691.75;;;18.60;38.50
31717;BME280;18301;51.076;17.046;2023-05-09T12:50:10;100694.09;;;18.55;38.04
31717;BME280;18301;51.076;17.046;2023-05-09T12:55:15;100668.09;;;18.51;38.06
31717;BME280;18301;51.076;17.046;2023-05-09T13:00:18;100669.16;;;18.58;38.82
31717;BME280;18301;51.076;17.046;2023-05-09T13:05:21;100666.25;;;18.78;38.57
31717;BME280;18301;51.076;17.046;2023-05-09T13:10:24;100676.88;;;18.81;37.11
31717;BME280;18301;51.076;17.046;2023-05-09T13:15:27;100662.22;;;18.82;36.28
31717;BME280;18301;51.076;17.046;2023-05-09T13:20:29;100652.25;;;18.73;37.46
31717;BME280;18301;51.076;17.046;2023-05-09T13:25:31;100637.13;;;18.69;37.17
31717;BME280;18301;51.076;17.046;2023-05-09T13:30:33;100640.88;;;18.68;37.84
31717;BME280;18301;51.076;17.046;2023-05-09T13:35:34;100645.59;;;18.75;37.13
31717;BME280;18301;51.076;17.046;2023-05-09T13:40:36;100646.59;;;18.56;37.50
31717;BME280;18301;51.076;17.046;2023-05-09T13:45:38;100629.88;;;18.59;37.75
31717;BME280;18301;51.076;17.046;2023-05-09T13:50:39;100600.84;;;18.58;38.13
31717;BME280;18301;51.076;17.046;2023-05-09T13:55:41;100592.09;;;18.73;37.79
31717;BME280;18301;51.076;17.046;2023-05-09T14:00:43;100601.38;;;18.36;38.68
31717;BME280;18301;51.076;17.046;2023-05-09T14:05:44;100578.56;;;18.45;38.28
31717;BME280;18301;51.076;17.046;2023-05-09T14:10:45;100580.97;;;18.74;39.44
31717;BME280;18301;51.076;17.046;2023-05-09T14:15:48;100580.94;;;18.66;38.28
31717;BME280;18301;51.076;17.046;2023-05-09T14:20:49;100572.00;;;18.90;37.29
31717;BME280;18301;51.076;17.046;2023-05-09T14:25:51;100556.63;;;18.89;38.04
31717;BME280;18301;51.076;17.046;2023-05-09T14:30:53;100554.25;;;18.68;38.72
31717;BME280;18301;51.076;17.046;2023-05-09T14:35:54;100553.25;;;18.69;37.99
31717;BME280;18301;51.076;17.046;2023-05-09T14:40:56;100542.97;;;18.63;38.23
31717;BME280;18301;51.076;17.046;2023-05-09T14:45:58;100544.34;;;18.67;38.56
31717;BME280;18301;51.076;17.046;2023-05-09T14:50:59;100538.69;;;18.34;38.63
31717;BME280;18301;51.076;17.046;2023-05-09T14:56:01;100544.25;;;18.25;38.27
31717;BME280;18301;51.076;17.046;2023-05-09T15:01:02;100528.28;;;18.38;38.69
31717;BME280;18301;51.076;17.046;2023-05-09T15:06:04;100520.25;;;18.36;39.37
31717;BME280;18301;51.076;17.046;2023-05-09T15:11:06;100521.53;;;18.50;38.68
31717;BME280;18301;51.076;17.046;2023-05-09T15:16:08;100505.13;;;18.50;37.74
31717;BME280;18301;51.076;17.046;2023-05-09T15:21:10;100509.97;;;18.30;37.49
31717;BME280;18301;51.076;17.046;2023-05-09T15:26:12;100515.53;;;18.21;37.93
31717;BME280;18301;51.076;17.046;2023-05-09T15:31:13;100502.69;;;18.39;37.37
31717;BME280;18301;51.076;17.046;2023-05-09T15:36:15;100504.09;;;18.17;38.46
31717;BME280;18301;51.076;17.046;2023-05-09T15:41:17;100499.59;;;18.08;37.28
31717;BME280;18301;51.076;17.046;2023-05-09T15:46:18;100491.81;;;17.95;38.43
31717;BME280;18301;51.076;17.046;2023-05-09T15:51:20;100484.06;;;18.08;37.28
31717;BME280;18301;51.076;17.046;2023-05-09T15:56:22;100479.13;;;17.86;38.66
31717;BME280;18301;51.076;17.046;2023-05-09T16:01:23;100470.66;;;17.97;38.78
31717;BME280;18301;51.076;17.046;2023-05-09T16:06:25;100462.09;;;17.92;38.67
31717;BME280;18301;51.076;17.046;2023-05-09T16:11:27;100461.00;;;17.85;38.31
31717;BME280;18301;51.076;17.046;2023-05-09T16:16:28;100458.75;;;17.62;38.32
31717;BME280;18301;51.076;17.046;2023-05-09T16:21:30;100453.53;;;17.51;38.68
31717;BME280;18301;51.076;17.046;2023-05-09T16:26:33;100432.25;;;17.19;39.55
31717;BME280;18301;51.076;17.046;2023-05-09T16:31:34;100422.97;;;17.47;38.69
31717;BME280;18301;51.076;17.046;2023-05-09T16:36:36;100417.69;;;17.28;39.07
31717;BME280;18301;51.076;17.046;2023-05-09T16:41:38;100425.25;;;17.34;39.13
31717;BME280;18301;51.076;17.046;2023-05-09T16:46:40;100415.97;;;17.09;40.30
31717;BME280;18301;51.076;17.046;2023-05-09T16:51:42;100409.97;;;17.06;40.17
31717;BME280;18301;51.076;17.046;2023-05-09T16:56:44;100409.34;;;16.94;40.15
31717;BME280;18301;51.076;17.046;2023-05-09T17:01:45;100399.50;;;16.83;40.32
31717;BME280;18301;51.076;17.046;2023-05-09T17:06:47;100394.09;;;16.73;40.73
31717;BME280;18301;51.076;17.046;2023-05-09T17:11:51;100381.69;;;16.89;39.92
31717;BME280;18301;51.076;17.046;2023-05-09T17:16:52;100378.34;;;16.67;40.41
31717;BME280;18301;51.076;17.046;2023-05-09T17:21:54;100374.00;;;16.56;40.75
31717;BME280;18301;51.076;17.046;2023-05-09T17:26:59;100367.34;;;16.59;41.09
31717;BME280;18301;51.076;17.046;2023-05-09T17:32:00;100373.81;;;16.58;41.42
31717;BME280;18301;51.076;17.046;2023-05-09T17:37:02;100358.41;;;16.49;42.00
31717;BME280;18301;51.076;17.046;2023-05-09T17:42:05;100367.78;;;16.37;42.75
31717;BME280;18301;51.076;17.046;2023-05-09T17:47:07;100364.22;;;16.36;42.18
31717;BME280;18301;51.076;17.046;2023-05-09T17:52:09;100372.13;;;16.29;42.43
31717;BME280;18301;51.076;17.046;2023-05-09T17:57:11;100371.91;;;16.13;42.92
31717;BME280;18301;51.076;17.046;2023-05-09T18:02:12;100357.78;;;16.00;43.21
31717;BME280;18301;51.076;17.046;2023-05-09T18:07:13;100361.69;;;15.87;43.67
31717;BME280;18301;51.076;17.046;2023-05-09T18:12:15;100365.28;;;15.78;44.25
31717;BME280;18301;51.076;17.046;2023-05-09T18:17:17;100354.41;;;15.78;44.19
31717;BME280;18301;51.076;17.046;2023-05-09T18:22:18;100358.56;;;15.63;44.38
31717;BME280;18301;51.076;17.046;2023-05-09T18:27:21;100360.91;;;15.58;44.44
31717;BME280;18301;51.076;17.046;2023-05-09T18:32:23;100371.94;;;15.47;44.98
31717;BME280;18301;51.076;17.046;2023-05-09T18:37:25;100369.94;;;15.29;45.28
31717;BME280;18301;51.076;17.046;2023-05-09T18:42:27;100370.50;;;15.23;45.40
31717;BME280;18301;51.076;17.046;2023-05-09T18:47:28;100370.81;;;15.10;45.49
31717;BME280;18301;51.076;17.046;2023-05-09T18:52:30;100372.22;;;14.95;46.19
31717;BME280;18301;51.076;17.046;2023-05-09T18:57:32;100375.41;;;14.90;46.08
31717;BME280;18301;51.076;17.046;2023-05-09T19:02:34;100374.50;;;14.80;46.40
31717;BME280;18301;51.076;17.046;2023-05-09T19:07:36;100378.81;;;14.83;46.49
31717;BME280;18301;51.076;17.046;2023-05-09T19:12:38;100376.53;;;14.78;47.11
31717;BME280;18301;51.076;17.046;2023-05-09T19:17:39;100368.31;;;14.59;47.29
31717;BME280;18301;51.076;17.046;2023-05-09T19:22:41;100388.69;;;14.43;47.95
31717;BME280;18301;51.076;17.046;2023-05-09T19:28:03;100381.66;;;14.31;47.81
31717;BME280;18301;51.076;17.046;2023-05-09T19:33:05;100374.31;;;14.22;48.38
31717;BME280;18301;51.076;17.046;2023-05-09T19:38:07;100378.03;;;14.21;48.29
31717;BME280;18301;51.076;17.046;2023-05-09T19:43:09;100369.13;;;14.09;48.40
31717;BME280;18301;51.076;17.046;2023-05-09T19:48:10;100370.13;;;13.98;49.07
31717;BME280;18301;51.076;17.046;2023-05-09T19:53:15;100365.09;;;13.73;49.66
31717;BME280;18301;51.076;17.046;2023-05-09T19:58:16;100372.38;;;13.72;49.49
31717;BME280;18301;51.076;17.046;2023-05-09T20:03:18;100365.66;;;13.67;49.45
31717;BME280;18301;51.076;17.046;2023-05-09T20:08:20;100361.44;;;13.53;49.86
31717;BME280;18301;51.076;17.046;2023-05-09T20:13:40;100362.03;;;13.56;49.81
31717;BME280;18301;51.076;17.046;2023-05-09T20:18:42;100357.94;;;13.41;50.17
31717;BME280;18301;51.076;17.046;2023-05-09T20:23:44;100357.03;;;13.31;50.45
31717;BME280;18301;51.076;17.046;2023-05-09T20:28:46;100354.31;;;13.31;50.15
31717;BME280;18301;51.076;17.046;2023-05-09T20:33:47;100357.03;;;13.20;50.50
31717;BME280;18301;51.076;17.046;2023-05-09T20:38:49;100345.97;;;13.11;50.22
31717;BME280;18301;51.076;17.046;2023-05-09T20:43:51;100350.44;;;13.12;50.09
31717;BME280;18301;51.076;17.046;2023-05-09T20:48:52;100345.72;;;13.14;50.01
31717;BME280;18301;51.076;17.046;2023-05-09T20:53:54;100342.69;;;13.08;49.85
31717;BME280;18301;51.076;17.046;2023-05-09T20:58:55;100343.34;;;13.00;49.93
31717;BME280;18301;51.076;17.046;2023-05-09T21:03:57;100337.41;;;13.06;49.53
31717;BME280;18301;51.076;17.046;2023-05-09T21:08:59;100333.63;;;12.98;49.73
31717;BME280;18301;51.076;17.046;2023-05-09T21:14:01;100326.94;;;13.02;49.68
31717;BME280;18301;51.076;17.046;2023-05-09T21:19:02;100333.03;;;12.94;49.70
31717;BME280;18301;51.076;17.046;2023-05-09T21:24:05;100322.91;;;12.75;50.22
31717;BME280;18301;51.076;17.046;2023-05-09T21:29:09;100325.38;;;12.67;50.25
31717;BME280;18301;51.076;17.046;2023-05-09T21:34:10;100313.94;;;12.63;50.32
31717;BME280;18301;51.076;17.046;2023-05-09T21:39:12;100311.25;;;12.63;50.20
31717;BME280;18301;51.076;17.046;2023-05-09T21:44:13;100308.78;;;12.60;50.68
31717;BME280;18301;51.076;17.046;2023-05-09T21:49:15;100312.38;;;12.50;50.64
31717;BME280;18301;51.076;17.046;2023-05-09T21:54:17;100312.34;;;12.29;51.70
31717;BME280;18301;51.076;17.046;2023-05-09T21:59:18;100306.19;;;12.27;51.32
31717;BME280;18301;51.076;17.046;2023-05-09T22:04:22;100306.94;;;12.29;51.50
31717;BME280;18301;51.076;17.046;2023-05-09T22:09:23;100303.47;;;12.27;51.58
31717;BME280;18301;51.076;17.046;2023-05-09T22:14:25;100301.03;;;12.12;51.91
31717;BME280;18301;51.076;17.046;2023-05-09T22:19:27;100302.28;;;12.08;51.80
31717;BME280;18301;51.076;17.046;2023-05-09T22:24:28;100297.47;;;12.12;51.84
31717;BME280;18301;51.076;17.046;2023-05-09T22:29:30;100290.88;;;12.05;52.23
31717;BME280;18301;51.076;17.046;2023-05-09T22:34:34;100288.53;;;12.00;52.00
31717;BME280;18301;51.076;17.046;2023-05-09T22:39:36;100286.81;;;11.99;51.89
31717;BME280;18301;51.076;17.046;2023-05-09T22:44:37;100279.94;;;11.95;52.30
31717;BME280;18301;51.076;17.046;2023-05-09T22:49:39;100281.41;;;11.88;52.45
31717;BME280;18301;51.076;17.046;2023-05-09T22:54:41;100283.84;;;11.91;52.72
31717;BME280;18301;51.076;17.046;2023-05-09T22:59:42;100275.03;;;11.89;52.69
31717;BME280;18301;51.076;17.046;2023-05-09T23:04:44;100277.47;;;11.81;52.92
31717;BME280;18301;51.076;17.046;2023-05-09T23:09:45;100271.78;;;11.72;53.29
31717;BME280;18301;51.076;17.046;2023-05-09T23:14:47;100265.19;;;11.65;53.28
31717;BME280;18301;51.076;17.046;2023-05-09T23:19:48;100250.19;;;11.61;53.25
31717;BME280;18301;51.076;17.046;2023-05-09T23:24:50;100261.75;;;11.52;53.97
31717;BME280;18301;51.076;17.046;2023-05-09T23:29:51;100251.66;;;11.54;53.65
31717;BME280;18301;51.076;17.046;2023-05-09T23:34:52;100248.72;;;11.35;54.18
31717;BME280;18301;51.076;17.046;2023-05-09T23:39:54;100251.44;;;11.46;53.83
31717;BME280;18301;51.076;17.046;2023-05-09T23:44:56;100251.41;;;11.35;54.41
31717;BME280;18301;51.076;17.046;2023-05-09T23:49:57;100245.88;;;11.25;54.52
31717;BME280;18301;51.076;17.046;2023-05-09T23:54:59;100233.59;;;11.10;55.55
